Time;durP1;ratioP1;P1;durP2;ratioP2;P2;SDS_P1;SDS_P2;PMS_P1;PMS_P2;Temp;Humidity;BMP_temperature;BMP_pressure;BME280_temperature;BME280_humidity;BME280_pressure;Samples;Min_cycle;Max_cycle;Signal;HPM_P1;HPM_P2
2023/05/24 00:01:58;;;;;;;11.60;7.47;;;;;;;;;;5053337;28;20044;-65
2023/05/24 00:04:28;;;;;;;9.90;7.50;;;;;;;;;;5053603;28;20064;-65
2023/05/24 00:06:55;;;;;;;11.70;7.85;;;;;;;;;;5053577;28;20056;-65
2023/05/24 00:09:22;;;;;;;10.75;7.90;;;;;;;;;;5053640;28;20079;-65
2023/05/24 00:11:48;;;;;;;10.45;8.02;;;;;;;;;;5053311;28;20463;-65
2023/05/24 00:14:15;;;;;;;9.82;7.80;;;;;;;;;;5053019;28;20570;-65
2023/05/24 00:16:41;;;;;;;9.57;8.18;;;;;;;;;;5053425;28;20098;-65
2023/05/24 00:19:09;;;;;;;9.60;7.30;;;;;;;;;;5053064;28;20484;-65
2023/05/24 00:21:36;;;;;;;12.05;8.00;;;;;;;;;;5053265;28;20040;-65
2023/05/24 00:24:03;;;;;;;10.32;8.93;;;;;;;;;;5053211;28;20110;-65
2023/05/24 00:26:29;;;;;;;10.90;8.13;;;;;;;;;;5053171;28;20079;-65
2023/05/24 00:28:56;;;;;;;11.48;9.70;;;;;;;;;;5053413;28;20431;-65
2023/05/24 00:31:22;;;;;;;10.82;8.88;;;;;;;;;;5053121;28;20049;-65
2023/05/24 00:33:48;;;;;;;10.23;7.65;;;;;;;;;;5053073;28;20052;-65
2023/05/24 00:36:15;;;;;;;9.93;8.25;;;;;;;;;;5053015;28;20049;-65
2023/05/24 00:38:41;;;;;;;10.65;7.43;;;;;;;;;;5052763;28;20045;-65
2023/05/24 00:41:08;;;;;;;11.57;7.78;;;;;;;;;;5052713;28;20111;-65
2023/05/24 00:43:35;;;;;;;9.63;7.60;;;;;;;;;;5052333;28;20037;-65
2023/05/24 00:46:22;;;;;;;9.00;7.22;;;;;;;;;;5052915;28;20049;-65
2023/05/24 00:48:49;;;;;;;9.77;7.15;;;;;;;;;;5052663;28;20037;-65
2023/05/24 00:51:16;;;;;;;8.38;7.00;;;;;;;;;;5051556;28;20053;-65
2023/05/24 00:53:44;;;;;;;8.82;7.32;;;;;;;;;;5051061;28;20562;-65
2023/05/24 00:56:10;;;;;;;;;;;;;;;;;;5052760;28;20057;-65
2023/05/24 00:58:36;;;;;;;11.45;9.43;;;;;;;;;;5052275;28;19928;-65
2023/05/24 01:01:03;;;;;;;12.32;9.32;;;;;;;;;;5052187;28;20440;-65
2023/05/24 01:03:30;;;;;;;10.55;8.45;;;;;;;;;;5052442;28;20049;-65
2023/05/24 01:05:57;;;;;;;10.55;8.73;;;;;;;;;;5052416;28;20045;-65
2023/05/24 01:08:41;;;;;;;7.97;7.18;;;;;;;;;;5051749;28;20052;-65
2023/05/24 01:11:26;;;;;;;9.38;8.32;;;;;;;;;;5052107;28;20057;-65
2023/05/24 01:14:02;;;;;;;9.70;8.30;;;;;;;;;;5051350;28;20057;-65
2023/05/24 01:16:37;;;;;;;10.57;8.32;;;;;;;;;;5052134;28;20057;-65
2023/05/24 01:19:10;;;;;;;11.60;9.02;;;;;;;;;;5051837;28;20140;-65
2023/05/24 01:21:47;;;;;;;12.02;9.38;;;;;;;;;;5052130;28;20090;-65
2023/05/24 01:24:31;;;;;;;14.27;9.82;;;;;;;;;;5045524;28;20484;-65
2023/05/24 01:26:58;;;;;;;13.07;9.82;;;;;;;;;;5051737;28;20049;-65
2023/05/24 01:29:25;;;;;;;13.40;9.35;;;;;;;;;;5052004;28;20045;-65
2023/05/24 01:31:51;;;;;;;10.73;9.35;;;;;;;;;;5052014;28;20099;-65
2023/05/24 01:34:18;;;;;;;9.40;8.30;;;;;;;;;;5051881;28;20053;-65
2023/05/24 01:36:45;;;;;;;10.57;8.68;;;;;;;;;;5052016;28;20052;-65
2023/05/24 01:39:12;;;;;;;9.52;8.50;;;;;;;;;;5050729;28;20110;-65
2023/05/24 01:41:41;;;;;;;9.98;8.98;;;;;;;;;;5051528;28;20067;-65
2023/05/24 01:44:30;;;;;;;10.75;9.18;;;;;;;;;;5052103;28;20106;-65
2023/05/24 01:47:01;;;;;;;9.77;8.77;;;;;;;;;;5051922;28;20049;-65
2023/05/24 01:49:30;;;;;;;9.82;8.82;;;;;;;;;;5051856;28;20041;-65
2023/05/24 01:52:02;;;;;;;10.85;8.35;;;;;;;;;;5051520;28;20626;-65
2023/05/24 01:54:31;;;;;;;10.50;9.07;;;;;;;;;;5041979;28;20057;-65
2023/05/24 01:56:59;;;;;;;11.15;8.98;;;;;;;;;;5051431;28;20075;-65
2023/05/24 01:59:26;;;;;;;10.02;8.45;;;;;;;;;;5051233;28;20110;-65
2023/05/24 02:01:52;;;;;;;11.45;9.65;;;;;;;;;;5051437;28;20076;-65
2023/05/24 02:04:19;;;;;;;11.32;8.82;;;;;;;;;;5051470;28;20136;-65
2023/05/24 02:06:45;;;;;;;14.55;10.30;;;;;;;;;;5051162;28;20496;-65
2023/05/24 02:09:12;;;;;;;11.68;10.40;;;;;;;;;;5051696;28;20075;-65
2023/05/24 02:11:38;;;;;;;13.27;10.13;;;;;;;;;;5051306;28;20508;-65
2023/05/24 02:14:04;;;;;;;10.93;9.57;;;;;;;;;;5051469;28;20106;-65
2023/05/24 02:16:32;;;;;;;11.82;9.65;;;;;;;;;;5051215;28;20053;-65
2023/05/24 02:18:58;;;;;;;11.90;10.55;;;;;;;;;;5051590;28;20475;-65
2023/05/24 02:21:26;;;;;;;11.68;10.07;;;;;;;;;;5054322;28;20451;-65
2023/05/24 02:23:52;;;;;;;15.27;12.32;;;;;;;;;;5055297;28;20072;-65
2023/05/24 02:26:19;;;;;;;14.00;11.07;;;;;;;;;;5055528;28;20049;-65
2023/05/24 02:28:47;;;;;;;13.50;11.25;;;;;;;;;;5055384;28;20045;-65
2023/05/24 02:31:13;;;;;;;;;;;;;;;;;;5055907;28;20065;-65
2023/05/24 02:33:39;;;;;;;15.77;12.25;;;;;;;;;;5055020;28;19931;-65
2023/05/24 02:36:06;;;;;;;14.10;12.25;;;;;;;;;;5055002;28;20512;-65
2023/05/24 02:38:32;;;;;;;13.38;12.00;;;;;;;;;;5055291;28;20049;-65
2023/05/24 02:40:58;;;;;;;12.45;11.15;;;;;;;;;;5054764;28;20144;-65
2023/05/24 02:43:25;;;;;;;13.45;11.50;;;;;;;;;;5055271;28;20094;-65
2023/05/24 02:45:51;;;;;;;12.95;11.63;;;;;;;;;;5054753;28;20049;-65
2023/05/24 02:48:18;;;;;;;13.18;11.43;;;;;;;;;;5055150;28;20059;-65
2023/05/24 02:50:44;;;;;;;12.50;11.18;;;;;;;;;;5054613;28;20057;-65
2023/05/24 02:53:11;;;;;;;11.85;10.63;;;;;;;;;;5053564;28;20049;-65
2023/05/24 02:55:37;;;;;;;12.57;11.10;;;;;;;;;;5048952;28;20106;-65
2023/05/24 02:58:03;;;;;;;11.55;10.23;;;;;;;;;;5054443;28;20578;-65
2023/05/24 03:00:30;;;;;;;13.73;10.32;;;;;;;;;;5054677;28;20071;-65
2023/05/24 03:02:59;;;;;;;12.18;10.57;;;;;;;;;;5054503;28;20052;-65
2023/05/24 03:05:26;;;;;;;11.18;9.98;;;;;;;;;;5054749;28;20049;-65
2023/05/24 03:07:52;;;;;;;11.15;10.00;;;;;;;;;;5054392;28;20500;-65
2023/05/24 03:10:18;;;;;;;12.05;10.45;;;;;;;;;;5054717;28;20106;-65
2023/05/24 03:12:45;;;;;;;13.02;11.05;;;;;;;;;;5054313;28;20045;-65
2023/05/24 03:15:11;;;;;;;13.55;11.00;;;;;;;;;;5054636;28;20094;-65
2023/05/24 03:17:38;;;;;;;12.45;11.07;;;;;;;;;;5054343;28;20099;-65
2023/05/24 03:20:04;;;;;;;10.95;9.85;;;;;;;;;;5054432;28;20064;-65
2023/05/24 03:22:31;;;;;;;12.80;10.53;;;;;;;;;;5054548;28;20045;-65
2023/05/24 03:24:57;;;;;;;11.82;10.27;;;;;;;;;;5054276;28;20103;-65
2023/05/24 03:27:24;;;;;;;12.77;10.25;;;;;;;;;;5054184;28;20045;-65
2023/05/24 03:29:51;;;;;;;13.20;11.38;;;;;;;;;;5054252;28;20048;-65
2023/05/24 03:32:17;;;;;;;12.50;10.50;;;;;;;;;;5053448;28;20053;-65
2023/05/24 03:34:43;;;;;;;12.18;10.82;;;;;;;;;;5054144;28;20103;-65
2023/05/24 03:37:10;;;;;;;12.93;11.52;;;;;;;;;;5054238;28;20049;-65
2023/05/24 03:39:36;;;;;;;12.23;11.00;;;;;;;;;;5053855;28;20075;-65
2023/05/24 03:42:03;;;;;;;13.25;11.40;;;;;;;;;;5054028;28;20056;-65
2023/05/24 03:44:29;;;;;;;12.27;11.07;;;;;;;;;;5053819;28;20489;-65
2023/05/24 03:46:56;;;;;;;13.05;11.13;;;;;;;;;;5053974;28;20052;-65
2023/05/24 03:49:22;;;;;;;11.40;10.30;;;;;;;;;;5053952;28;20381;-65
2023/05/24 03:51:49;;;;;;;11.48;10.07;;;;;;;;;;5053584;28;20056;-65
2023/05/24 03:54:16;;;;;;;13.85;10.40;;;;;;;;;;5046636;28;20099;-65
2023/05/24 03:56:43;;;;;;;14.75;12.18;;;;;;;;;;5053688;28;20492;-65
2023/05/24 03:59:09;;;;;;;14.32;12.82;;;;;;;;;;5053400;28;20087;-65
2023/05/24 04:01:36;;;;;;;12.70;11.40;;;;;;;;;;5053356;28;20542;-65
2023/05/24 04:04:02;;;;;;;13.48;12.07;;;;;;;;;;5053720;28;20051;-65
2023/05/24 04:06:29;;;;;;;12.87;11.47;;;;;;;;;;5053536;28;20049;-65
2023/05/24 04:08:59;;;;;;;12.57;11.32;;;;;;;;;;5053290;28;20554;-65
2023/05/24 04:11:27;;;;;;;12.85;11.13;;;;;;;;;;5053345;28;20045;-65
2023/05/24 04:13:54;;;;;;;13.40;12.00;;;;;;;;;;5053218;28;20064;-65
2023/05/24 04:16:24;;;;;;;12.57;11.23;;;;;;;;;;5053163;28;20060;-65
2023/05/24 04:18:55;;;;;;;13.93;12.00;;;;;;;;;;5053457;28;20102;-64
2023/05/24 04:21:21;;;;;;;13.57;12.25;;;;;;;;;;5053241;28;20055;-65
2023/05/24 04:23:48;;;;;;;14.32;12.68;;;;;;;;;;5053353;28;20118;-65
2023/05/24 04:26:14;;;;;;;15.38;13.05;;;;;;;;;;5052956;28;20045;-65
2023/05/24 04:28:41;;;;;;;15.05;12.75;;;;;;;;;;5052904;28;20409;-65
2023/05/24 04:31:08;;;;;;;15.43;12.98;;;;;;;;;;5052901;28;20075;-65
2023/05/24 04:33:35;;;;;;;13.63;12.23;;;;;;;;;;5053118;28;20098;-64
2023/05/24 04:36:02;;;;;;;13.38;11.95;;;;;;;;;;5052855;28;20121;-65
2023/05/24 04:38:31;;;;;;;12.52;11.25;;;;;;;;;;5053077;28;20456;-64
2023/05/24 04:41:00;;;;;;;13.10;11.73;;;;;;;;;;5052797;28;20048;-64
2023/05/24 04:43:27;;;;;;;13.27;11.45;;;;;;;;;;5052130;28;20049;-64
2023/05/24 04:45:54;;;;;;;15.07;10.90;;;;;;;;;;5050184;28;20146;-64
2023/05/24 04:48:22;;;;;;;12.73;10.93;;;;;;;;;;5052902;28;20045;-65
2023/05/24 04:50:50;;;;;;;12.52;10.75;;;;;;;;;;5052569;28;20471;-65
2023/05/24 04:53:16;;;;;;;13.00;11.38;;;;;;;;;;5050313;28;20053;-65
2023/05/24 04:55:42;;;;;;;12.73;11.32;;;;;;;;;;5047442;28;20095;-65
2023/05/24 04:58:09;;;;;;;15.40;11.30;;;;;;;;;;5052219;28;20114;-65
2023/05/24 05:00:36;;;;;;;13.43;11.55;;;;;;;;;;5052228;28;20067;-65
2023/05/24 05:03:02;;;;;;;13.00;11.43;;;;;;;;;;5052532;28;20049;-65
2023/05/24 05:05:29;;;;;;;12.25;10.98;;;;;;;;;;5052439;28;20055;-65
2023/05/24 05:07:56;;;;;;;14.27;12.57;;;;;;;;;;5052449;28;20048;-65
2023/05/24 05:10:22;;;;;;;14.13;12.13;;;;;;;;;;5052142;28;20098;-65
2023/05/24 05:12:49;;;;;;;14.38;12.00;;;;;;;;;;5052276;28;20099;-65
2023/05/24 05:15:16;;;;;;;12.57;11.10;;;;;;;;;;5052078;28;20558;-64
2023/05/24 05:17:42;;;;;;;12.48;10.88;;;;;;;;;;5051922;28;20103;-64
2023/05/24 05:20:09;;;;;;;14.93;11.60;;;;;;;;;;5052056;28;20488;-64
2023/05/24 05:22:35;;;;;;;15.85;12.43;;;;;;;;;;5052129;28;20045;-65
2023/05/24 05:25:02;;;;;;;13.13;11.63;;;;;;;;;;5052226;28;20045;-65
2023/05/24 05:27:29;;;;;;;12.65;11.18;;;;;;;;;;5052119;28;20056;-65
2023/05/24 05:29:55;;;;;;;13.70;11.43;;;;;;;;;;5051909;28;20099;-65
2023/05/24 05:32:22;;;;;;;14.05;11.30;;;;;;;;;;5052088;28;20087;-64
2023/05/24 05:34:48;;;;;;;15.60;11.60;;;;;;;;;;5052032;28;20132;-65
2023/05/24 05:37:15;;;;;;;14.63;11.05;;;;;;;;;;5051680;28;20551;-65
2023/05/24 05:39:41;;;;;;;13.40;11.43;;;;;;;;;;5052003;28;20048;-65
2023/05/24 05:42:08;;;;;;;13.20;11.50;;;;;;;;;;5051822;28;20045;-65
2023/05/24 05:44:34;;;;;;;14.75;12.13;;;;;;;;;;5051669;28;20037;-65
2023/05/24 05:47:02;;;;;;;12.35;10.50;;;;;;;;;;5051571;28;20668;-65
2023/05/24 05:49:30;;;;;;;13.50;12.13;;;;;;;;;;5051631;28;20045;-65
2023/05/24 05:51:56;;;;;;;14.00;12.52;;;;;;;;;;5051788;28;20421;-65
2023/05/24 05:54:23;;;;;;;12.82;11.35;;;;;;;;;;5044127;28;20075;-65
2023/05/24 05:56:49;;;;;;;14.13;11.57;;;;;;;;;;5051689;28;20554;-65
2023/05/24 05:59:16;;;;;;;13.68;12.13;;;;;;;;;;5051186;28;20057;-65
2023/05/24 06:01:45;;;;;;;14.65;12.30;;;;;;;;;;5051670;28;20103;-65
2023/05/24 06:04:12;;;;;;;16.08;12.88;;;;;;;;;;5051413;28;20041;-65
2023/05/24 06:06:39;;;;;;;14.68;13.00;;;;;;;;;;5051303;28;20048;-65
2023/05/24 06:09:06;;;;;;;14.02;12.40;;;;;;;;;;5051382;28;20087;-64
2023/05/24 06:11:32;;;;;;;14.57;12.63;;;;;;;;;;5051342;28;20071;-65
2023/05/24 06:13:59;;;;;;;17.58;11.55;;;;;;;;;;5051645;28;20049;-64
2023/05/24 06:16:26;;;;;;;14.80;10.50;;;;;;;;;;5051488;28;20132;-64
2023/05/24 06:18:53;;;;;;;15.02;11.02;;;;;;;;;;5051519;28;20059;-64
2023/05/24 06:21:31;;;;;;;12.25;9.82;;;;;;;;;;5051455;28;20048;-64
2023/05/24 06:23:58;;;;;;;17.48;10.57;;;;;;;;;;5051569;28;20451;-64
2023/05/24 06:26:25;;;;;;;10.67;8.60;;;;;;;;;;5046603;28;20550;-64
2023/05/24 06:28:52;;;;;;;13.57;9.70;;;;;;;;;;5033124;28;20116;-65
2023/05/24 06:31:18;;;;;;;11.80;8.95;;;;;;;;;;5045256;28;20136;-65
2023/05/24 06:33:45;;;;;;;15.27;8.60;;;;;;;;;;5051373;28;20053;-64
2023/05/24 06:36:21;;;;;;;9.57;7.90;;;;;;;;;;5051505;28;20058;-64
2023/05/24 06:38:47;;;;;;;16.27;7.70;;;;;;;;;;5051012;28;20056;-66
2023/05/24 06:41:14;;;;;;;11.82;7.68;;;;;;;;;;5038656;28;20076;-64
2023/05/24 06:43:40;;;;;;;10.10;6.20;;;;;;;;;;5030938;28;20054;-65
2023/05/24 06:46:07;;;;;;;9.73;5.28;;;;;;;;;;5031322;28;20103;-65
2023/05/24 06:48:33;;;;;;;8.93;5.55;;;;;;;;;;5031398;28;20065;-65
2023/05/24 06:51:00;;;;;;;10.43;4.15;;;;;;;;;;5040198;28;20250;-65
2023/05/24 06:53:26;;;;;;;12.48;4.25;;;;;;;;;;5041381;28;20053;-64
2023/05/24 06:55:53;;;;;;;8.52;3.83;;;;;;;;;;5028484;28;20760;-65
2023/05/24 06:58:22;;;;;;;7.72;3.70;;;;;;;;;;5015869;28;20451;-65
2023/05/24 07:00:49;;;;;;;10.00;4.05;;;;;;;;;;5042751;28;20080;-65
2023/05/24 07:03:16;;;;;;;11.73;3.50;;;;;;;;;;5050781;28;20049;-65
2023/05/24 07:05:42;;;;;;;8.35;3.97;;;;;;;;;;5051171;28;20455;-65
2023/05/24 07:08:08;;;;;;;9.90;3.88;;;;;;;;;;5054537;28;20095;-65
2023/05/24 07:10:35;;;;;;;9.05;3.50;;;;;;;;;;5054485;28;20076;-65
2023/05/24 07:13:02;;;;;;;9.30;3.85;;;;;;;;;;5054605;28;20087;-65
2023/05/24 07:15:29;;;;;;;12.85;4.07;;;;;;;;;;5054727;28;20118;-65
2023/05/24 07:17:55;;;;;;;10.10;3.65;;;;;;;;;;5054330;28;20099;-65
2023/05/24 07:20:22;;;;;;;12.48;3.33;;;;;;;;;;5054576;28;20060;-65
2023/05/24 07:22:48;;;;;;;9.98;3.92;;;;;;;;;;5054168;28;20055;-65
2023/05/24 07:25:14;;;;;;;10.90;3.95;;;;;;;;;;5054432;28;20044;-65
2023/05/24 07:27:41;;;;;;;8.80;3.90;;;;;;;;;;5054062;28;20049;-65
2023/05/24 07:30:08;;;;;;;9.00;3.67;;;;;;;;;;5054312;28;20102;-65
2023/05/24 07:32:49;;;;;;;11.25;3.92;;;;;;;;;;5054154;28;20080;-65
2023/05/24 07:35:16;;;;;;;10.67;4.13;;;;;;;;;;5054119;28;20049;-65
2023/05/24 07:37:42;;;;;;;10.90;3.47;;;;;;;;;;5054293;28;20045;-65
2023/05/24 07:40:11;;;;;;;8.00;3.72;;;;;;;;;;5053859;28;20140;-65
2023/05/24 07:42:37;;;;;;;10.45;3.97;;;;;;;;;;5053692;28;20550;-65
2023/05/24 07:45:05;;;;;;;10.20;3.60;;;;;;;;;;5053878;28;20041;-65
2023/05/24 07:47:32;;;;;;;8.57;3.90;;;;;;;;;;5054016;28;20040;-65
2023/05/24 07:49:59;;;;;;;7.38;3.75;;;;;;;;;;5054074;28;20135;-65
2023/05/24 07:52:25;;;;;;;5.70;3.30;;;;;;;;;;5054258;28;20059;-65
2023/05/24 07:54:52;;;;;;;11.60;4.00;;;;;;;;;;5046378;28;20045;-65
2023/05/24 07:57:18;;;;;;;9.65;3.95;;;;;;;;;;5053891;28;20048;-65
2023/05/24 07:59:45;;;;;;;10.98;4.07;;;;;;;;;;5053386;28;20057;-65
2023/05/24 08:02:15;;;;;;;8.50;3.67;;;;;;;;;;5053438;28;20053;-65
2023/05/24 08:04:45;;;;;;;9.70;3.40;;;;;;;;;;5053520;28;20056;-65
2023/05/24 08:07:11;;;;;;;10.48;3.75;;;;;;;;;;5053540;28;20408;-65
2023/05/24 08:09:39;;;;;;;9.82;3.83;;;;;;;;;;5053640;28;20084;-65
2023/05/24 08:12:05;;;;;;;8.43;4.05;;;;;;;;;;5053354;28;20056;-65
2023/05/24 08:14:32;;;;;;;9.63;3.70;;;;;;;;;;5053466;28;20053;-65
2023/05/24 08:16:59;;;;;;;10.65;4.15;;;;;;;;;;5053258;28;20102;-65
2023/05/24 08:19:26;;;;;;;10.52;4.03;;;;;;;;;;5053408;28;20174;-65
2023/05/24 08:22:03;;;;;;;11.68;3.83;;;;;;;;;;5053007;28;20459;-65
2023/05/24 08:24:30;;;;;;;10.05;4.35;;;;;;;;;;5053375;28;20049;-65
2023/05/24 08:26:57;;;;;;;;;;;;;;;;;;5053602;28;20140;-65
2023/05/24 08:29:23;;;;;;;9.60;4.60;;;;;;;;;;5052995;28;20671;-65
2023/05/24 08:31:50;;;;;;;9.60;3.95;;;;;;;;;;5052828;28;20049;-65
2023/05/24 08:34:17;;;;;;;12.35;5.03;;;;;;;;;;5053174;28;20052;-65
2023/05/24 08:36:44;;;;;;;8.63;4.13;;;;;;;;;;5053150;28;20133;-65
2023/05/24 08:39:11;;;;;;;9.68;4.53;;;;;;;;;;5052731;28;20084;-65
2023/05/24 08:41:37;;;;;;;13.63;4.68;;;;;;;;;;5052677;28;20887;-65
2023/05/24 08:44:04;;;;;;;14.50;4.33;;;;;;;;;;5051493;28;20171;-65
2023/05/24 08:46:33;;;;;;;9.30;4.43;;;;;;;;;;5052968;28;20114;-65
2023/05/24 08:49:02;;;;;;;8.90;3.85;;;;;;;;;;5052456;28;20048;-65
2023/05/24 08:51:29;;;;;;;8.38;4.35;;;;;;;;;;5051605;28;20447;-65
2023/05/24 08:53:57;;;;;;;11.30;4.00;;;;;;;;;;5045519;28;20067;-65
2023/05/24 08:56:24;;;;;;;9.30;3.65;;;;;;;;;;5052775;28;20053;-65
2023/05/24 08:58:50;;;;;;;9.10;4.05;;;;;;;;;;5052206;28;20069;-65
2023/05/24 09:01:17;;;;;;;9.18;3.90;;;;;;;;;;5052345;28;20057;-65
2023/05/24 09:03:47;;;;;;;10.43;4.22;;;;;;;;;;5052298;28;20056;-65
2023/05/24 09:06:15;;;;;;;8.48;4.25;;;;;;;;;;5052111;28;20483;-65
2023/05/24 09:08:42;;;;;;;6.90;3.97;;;;;;;;;;5052518;28;20045;-65
2023/05/24 09:11:09;;;;;;;6.95;4.20;;;;;;;;;;5052177;28;20056;-65
2023/05/24 09:13:36;;;;;;;11.00;3.90;;;;;;;;;;5052464;28;20420;-65
2023/05/24 09:16:03;;;;;;;;;;;;;;;;;;5052422;28;20053;-65
2023/05/24 09:18:29;;;;;;;7.20;4.15;;;;;;;;;;5052376;28;19925;-65
2023/05/24 09:20:56;;;;;;;8.25;3.95;;;;;;;;;;5052358;28;20076;-65
2023/05/24 09:23:24;;;;;;;10.40;4.68;;;;;;;;;;5052201;28;20041;-65
2023/05/24 09:25:50;;;;;;;9.25;3.95;;;;;;;;;;5051977;28;20493;-65
2023/05/24 09:28:17;;;;;;;9.90;4.47;;;;;;;;;;5051747;28;20051;-65
2023/05/24 09:30:44;;;;;;;4.97;3.38;;;;;;;;;;5051872;28;20037;-65
2023/05/24 09:33:12;;;;;;;8.73;3.85;;;;;;;;;;5052019;28;20067;-65
2023/05/24 09:35:42;;;;;;;9.18;3.90;;;;;;;;;;5051702;28;20091;-65
2023/05/24 09:38:17;;;;;;;7.07;3.72;;;;;;;;;;5051898;28;20056;-65
2023/05/24 09:40:43;;;;;;;8.75;3.20;;;;;;;;;;5051692;28;20052;-65
2023/05/24 09:43:10;;;;;;;7.57;3.50;;;;;;;;;;5051828;28;20045;-65
2023/05/24 09:45:46;;;;;;;6.90;3.25;;;;;;;;;;5051583;28;20045;-65
2023/05/24 09:48:13;;;;;;;9.02;3.50;;;;;;;;;;5051978;28;20447;-65
2023/05/24 09:50:39;;;;;;;5.82;3.25;;;;;;;;;;5051517;28;20102;-65
2023/05/24 09:53:07;;;;;;;7.60;3.95;;;;;;;;;;5050947;28;20098;-65
2023/05/24 09:55:36;;;;;;;6.75;3.53;;;;;;;;;;5045685;28;20063;-66
2023/05/24 09:58:03;;;;;;;7.82;3.80;;;;;;;;;;5051624;28;20395;-65
2023/05/24 10:00:34;;;;;;;6.75;3.55;;;;;;;;;;5051650;28;20451;-65
2023/05/24 10:03:05;;;;;;;8.45;3.50;;;;;;;;;;5050106;28;20045;-65
2023/05/24 10:05:32;;;;;;;5.72;3.20;;;;;;;;;;5050413;28;20088;-65
2023/05/24 10:07:59;;;;;;;4.95;3.15;;;;;;;;;;5051364;28;20045;-65
2023/05/24 10:10:30;;;;;;;7.72;3.30;;;;;;;;;;5051376;28;20049;-65
2023/05/24 10:12:57;;;;;;;5.78;3.13;;;;;;;;;;5051905;28;20095;-65
2023/05/24 10:15:24;;;;;;;6.82;3.33;;;;;;;;;;5051489;28;20082;-65
2023/05/24 10:17:51;;;;;;;6.85;3.67;;;;;;;;;;5051542;28;20083;-65
2023/05/24 10:20:17;;;;;;;5.15;3.40;;;;;;;;;;5051328;28;20080;-65
2023/05/24 10:22:46;;;;;;;5.53;3.80;;;;;;;;;;5051484;28;20075;-65
2023/05/24 10:25:16;;;;;;;6.25;3.38;;;;;;;;;;5023828;28;20073;-65
2023/05/24 10:27:44;;;;;;;8.45;3.88;;;;;;;;;;5051575;28;20041;-65
2023/05/24 10:30:16;;;;;;;7.10;3.15;;;;;;;;;;5051459;28;20052;-65
2023/05/24 10:32:44;;;;;;;6.47;3.50;;;;;;;;;;5051435;28;20049;-65
2023/05/24 10:35:11;;;;;;;8.48;3.70;;;;;;;;;;5051334;28;20389;-65
2023/05/24 10:37:37;;;;;;;6.38;3.20;;;;;;;;;;5051144;28;20080;-66
2023/05/24 10:40:08;;;;;;;5.90;3.42;;;;;;;;;;5051416;28;20054;-66
2023/05/24 10:42:35;;;;;;;7.07;3.50;;;;;;;;;;5054639;28;20087;-66
2023/05/24 10:45:20;;;;;;;5.43;3.55;;;;;;;;;;5055064;28;20106;-66
2023/05/24 10:47:46;;;;;;;7.30;3.38;;;;;;;;;;5055112;28;20080;-66
2023/05/24 10:50:16;;;;;;;5.63;3.47;;;;;;;;;;5055137;28;20045;-66
2023/05/24 10:52:43;;;;;;;7.00;3.58;;;;;;;;;;5055016;28;20122;-66
2023/05/24 10:55:10;;;;;;;4.50;3.22;;;;;;;;;;5047704;28;20103;-66
2023/05/24 10:57:37;;;;;;;5.88;3.92;;;;;;;;;;5054667;28;20427;-66
2023/05/24 11:00:27;;;;;;;4.68;3.08;;;;;;;;;;5054682;28;20618;-66
2023/05/24 11:03:01;;;;;;;5.90;3.75;;;;;;;;;;5054603;28;20060;-66
2023/05/24 11:05:54;;;;;;;6.72;3.50;;;;;;;;;;5054771;28;20052;-66
2023/05/24 11:08:31;;;;;;;7.00;3.53;;;;;;;;;;5054243;28;20049;-66
2023/05/24 11:11:11;;;;;;;4.72;3.40;;;;;;;;;;5054644;28;20131;-66
2023/05/24 11:13:41;;;;;;;4.38;3.08;;;;;;;;;;5054537;28;20081;-66
2023/05/24 11:16:08;;;;;;;5.78;3.28;;;;;;;;;;5054484;28;20463;-66
2023/05/24 11:18:37;;;;;;;4.13;2.90;;;;;;;;;;5053120;28;20049;-66
2023/05/24 11:21:05;;;;;;;5.28;3.25;;;;;;;;;;5054569;28;20049;-67
2023/05/24 11:23:31;;;;;;;4.93;2.92;;;;;;;;;;5054486;28;20444;-66
2023/05/24 11:26:01;;;;;;;5.88;3.15;;;;;;;;;;5054190;28;20492;-67
2023/05/24 11:28:28;;;;;;;6.35;3.70;;;;;;;;;;5054263;28;20041;-67
2023/05/24 11:30:56;;;;;;;5.22;3.60;;;;;;;;;;5054390;28;20133;-67
2023/05/24 11:33:23;;;;;;;5.32;3.35;;;;;;;;;;5054056;28;20049;-67
2023/05/24 11:35:49;;;;;;;5.00;3.15;;;;;;;;;;5054156;28;20056;-67
2023/05/24 11:38:16;;;;;;;7.78;3.25;;;;;;;;;;5054517;28;20053;-67
2023/05/24 11:40:46;;;;;;;4.97;3.00;;;;;;;;;;5053791;28;20049;-67
2023/05/24 11:43:14;;;;;;;2.95;2.30;;;;;;;;;;5054145;28;20049;-67
2023/05/24 11:45:43;;;;;;;4.07;3.00;;;;;;;;;;5053818;28;20075;-67
2023/05/24 11:48:10;;;;;;;4.57;3.00;;;;;;;;;;5053762;28;20053;-67
2023/05/24 11:50:37;;;;;;;4.15;2.97;;;;;;;;;;5053645;28;20045;-67
2023/05/24 11:53:17;;;;;;;4.75;2.78;;;;;;;;;;5051470;28;20071;-67
2023/05/24 11:55:44;;;;;;;5.03;2.95;;;;;;;;;;5048924;28;20052;-67
2023/05/24 11:58:17;;;;;;;5.30;2.85;;;;;;;;;;5053640;28;20107;-67
2023/05/24 12:00:44;;;;;;;3.50;2.55;;;;;;;;;;5053365;28;20496;-67
2023/05/24 12:03:11;;;;;;;6.50;3.03;;;;;;;;;;5053752;28;20118;-67
2023/05/24 12:05:37;;;;;;;9.65;3.70;;;;;;;;;;5053705;28;20049;-67
2023/05/24 12:08:05;;;;;;;5.70;2.55;;;;;;;;;;5053654;28;20456;-67
2023/05/24 12:10:33;;;;;;;5.13;2.95;;;;;;;;;;5053691;28;20053;-67
2023/05/24 12:13:00;;;;;;;4.43;2.90;;;;;;;;;;5053574;28;20126;-67
2023/05/24 12:15:26;;;;;;;10.18;3.83;;;;;;;;;;5053539;28;20106;-67
2023/05/24 12:17:53;;;;;;;4.95;2.70;;;;;;;;;;5053430;28;20075;-67
2023/05/24 12:20:20;;;;;;;4.00;2.78;;;;;;;;;;5053346;28;20136;-67
2023/05/24 12:22:49;;;;;;;4.68;2.80;;;;;;;;;;5053074;28;20508;-67
2023/05/24 12:25:18;;;;;;;3.53;2.60;;;;;;;;;;5053378;28;20468;-67
2023/05/24 12:27:46;;;;;;;4.20;2.53;;;;;;;;;;5053044;28;20048;-67
2023/05/24 12:30:19;;;;;;;4.70;2.63;;;;;;;;;;5052949;28;20041;-67
2023/05/24 12:32:47;;;;;;;3.42;2.70;;;;;;;;;;5053151;28;20053;-67
2023/05/24 12:35:16;;;;;;;5.13;2.50;;;;;;;;;;5053191;28;20400;-67
2023/05/24 12:37:42;;;;;;;5.03;2.78;;;;;;;;;;5053109;28;20099;-66
2023/05/24 12:40:22;;;;;;;4.07;3.00;;;;;;;;;;5052753;28;20052;-66
2023/05/24 12:42:50;;;;;;;3.70;2.83;;;;;;;;;;5053012;28;20045;-67
2023/05/24 12:45:21;;;;;;;5.32;2.45;;;;;;;;;;5052730;28;20411;-66
2023/05/24 12:47:48;;;;;;;4.28;2.80;;;;;;;;;;5053065;28;20052;-67
2023/05/24 12:50:16;;;;;;;5.90;2.80;;;;;;;;;;5052807;28;20132;-66
2023/05/24 12:52:45;;;;;;;4.25;2.55;;;;;;;;;;5052751;28;20099;-67
2023/05/24 12:55:12;;;;;;;4.40;2.58;;;;;;;;;;5045460;28;20049;-66
2023/05/24 12:57:39;;;;;;;5.07;2.90;;;;;;;;;;5052247;28;20460;-66
2023/05/24 13:00:06;;;;;;;4.18;2.80;;;;;;;;;;5052493;28;20049;-66
2023/05/24 13:02:33;;;;;;;5.20;2.67;;;;;;;;;;5052629;28;20052;-67
2023/05/24 13:05:00;;;;;;;4.13;2.78;;;;;;;;;;5051579;28;20051;-66
2023/05/24 13:07:26;;;;;;;3.70;2.72;;;;;;;;;;5052279;28;20453;-67
2023/05/24 13:09:53;;;;;;;5.15;2.63;;;;;;;;;;5051216;28;20098;-66
2023/05/24 13:12:19;;;;;;;4.00;2.88;;;;;;;;;;5052479;28;20118;-67
2023/05/24 13:14:46;;;;;;;4.70;2.83;;;;;;;;;;5052114;28;20045;-67
2023/05/24 13:17:14;;;;;;;4.38;2.78;;;;;;;;;;5052428;28;20056;-66
2023/05/24 13:19:41;;;;;;;5.53;3.00;;;;;;;;;;5051891;28;20053;-66
2023/05/24 13:22:08;;;;;;;4.78;2.78;;;;;;;;;;5052079;28;20053;-66
2023/05/24 13:24:35;;;;;;;3.60;2.55;;;;;;;;;;5051828;28;20044;-66
2023/05/24 13:27:02;;;;;;;3.95;2.90;;;;;;;;;;5052215;28;20102;-66
2023/05/24 13:29:28;;;;;;;6.22;2.88;;;;;;;;;;5051939;28;20049;-66
2023/05/24 13:32:08;;;;;;;3.92;2.50;;;;;;;;;;5051843;28;20072;-66
2023/05/24 13:34:35;;;;;;;3.67;2.58;;;;;;;;;;5051827;28;20053;-66
2023/05/24 13:37:01;;;;;;;3.03;2.72;;;;;;;;;;5051674;28;20067;-66
2023/05/24 13:39:28;;;;;;;4.60;3.08;;;;;;;;;;5051751;28;20045;-66
2023/05/24 13:41:54;;;;;;;4.97;2.90;;;;;;;;;;5051820;28;20048;-66
2023/05/24 13:44:21;;;;;;;3.22;2.50;;;;;;;;;;5051553;28;20076;-66
2023/05/24 13:46:47;;;;;;;4.15;2.60;;;;;;;;;;5051637;28;20114;-66
2023/05/24 13:49:14;;;;;;;3.65;2.67;;;;;;;;;;5051815;28;20095;-66
2023/05/24 13:51:41;;;;;;;4.93;2.60;;;;;;;;;;5051924;28;20052;-66
2023/05/24 13:54:07;;;;;;;4.20;2.53;;;;;;;;;;5044441;28;20088;-66
2023/05/24 13:56:34;;;;;;;5.53;2.78;;;;;;;;;;5051810;28;20071;-66
2023/05/24 13:59:02;;;;;;;4.38;2.65;;;;;;;;;;5051402;28;20065;-66
2023/05/24 14:01:29;;;;;;;3.83;2.80;;;;;;;;;;5051534;28;20045;-66
2023/05/24 14:03:56;;;;;;;4.40;3.08;;;;;;;;;;5051757;28;20464;-66
2023/05/24 14:06:22;;;;;;;5.53;3.00;;;;;;;;;;5051581;28;20056;-66
2023/05/24 14:08:48;;;;;;;3.20;2.45;;;;;;;;;;5051540;28;20045;-66
2023/05/24 14:11:15;;;;;;;4.03;3.05;;;;;;;;;;5051688;28;20392;-66
2023/05/24 14:13:42;;;;;;;4.15;2.90;;;;;;;;;;5051641;28;20045;-66
2023/05/24 14:16:28;;;;;;;5.53;3.13;;;;;;;;;;5054607;28;20063;-66
2023/05/24 14:18:55;;;;;;;6.22;3.00;;;;;;;;;;5055767;28;20049;-66
2023/05/24 14:21:22;;;;;;;4.60;3.08;;;;;;;;;;5055554;28;20062;-66
2023/05/24 14:23:49;;;;;;;5.20;2.90;;;;;;;;;;5055577;28;20137;-64
2023/05/24 14:26:15;;;;;;;3.97;2.72;;;;;;;;;;5055261;28;20049;-64
2023/05/24 14:28:42;;;;;;;4.05;2.63;;;;;;;;;;5055213;28;20134;-64
2023/05/24 14:31:08;;;;;;;5.72;3.08;;;;;;;;;;5055401;28;20052;-64
2023/05/24 14:33:36;;;;;;;4.50;2.85;;;;;;;;;;5055050;28;20088;-64
2023/05/24 14:36:03;;;;;;;3.58;2.63;;;;;;;;;;5055310;28;20098;-64
2023/05/24 14:38:29;;;;;;;3.92;3.13;;;;;;;;;;5055216;28;20095;-64